sensor_id;sensor_type;location;lat;lon;timestamp;pressure;altitude;pressure_sealevel;temperature;humidity
72677;BME280;60755;51.374;10.662;2023-07-20T00:01:05;96926.25;;;15.42;99.80
72677;BME280;60755;51.374;10.662;2023-07-20T00:03:32;96927.41;;;15.26;100.00
72677;BME280;60755;51.374;10.662;2023-07-20T00:05:59;96924.34;;;15.48;100.00
72677;BME280;60755;51.374;10.662;2023-07-20T00:08:28;96920.47;;;15.30;100.00
72677;BME280;60755;51.374;10.662;2023-07-20T00:10:55;96921.53;;;15.29;100.00
72677;BME280;60755;51.374;10.662;2023-07-20T00:13:22;96919.50;;;15.10;100.00
72677;BME280;60755;51.374;10.662;2023-07-20T00:15:51;96917.94;;;15.04;100.00
72677;BME280;60755;51.374;10.662;2023-07-20T00:18:18;96913.66;;;15.19;100.00
72677;BME280;60755;51.374;10.662;2023-07-20T00:20:46;96908.38;;;15.19;100.00
72677;BME280;60755;51.374;10.662;2023-07-20T00:23:13;96908.47;;;14.93;100.00
72677;BME280;60755;51.374;10.662;2023-07-20T00:25:40;96911.91;;;14.94;100.00
72677;BME280;60755;51.374;10.662;2023-07-20T00:28:07;96912.75;;;14.84;100.00
72677;BME280;60755;51.374;10.662;2023-07-20T00:30:34;96908.25;;;14.85;100.00
72677;BME280;60755;51.374;10.662;2023-07-20T00:33:03;96902.38;;;14.93;100.00
72677;BME280;60755;51.374;10.662;2023-07-20T00:35:30;96907.38;;;14.99;100.00
72677;BME280;60755;51.374;10.662;2023-07-20T00:37:57;96909.78;;;15.01;100.00
72677;BME280;60755;51.374;10.662;2023-07-20T00:40:24;96904.19;;;15.02;100.00
72677;BME280;60755;51.374;10.662;2023-07-20T00:42:52;96895.69;;;15.10;100.00
72677;BME280;60755;51.374;10.662;2023-07-20T00:45:24;96899.13;;;15.16;100.00
72677;BME280;60755;51.374;10.662;2023-07-20T00:47:52;96902.00;;;15.20;100.00
72677;BME280;60755;51.374;10.662;2023-07-20T00:50:21;96908.38;;;15.14;100.00
72677;BME280;60755;51.374;10.662;2023-07-20T00:52:48;96911.56;;;15.10;100.00
72677;BME280;60755;51.374;10.662;2023-07-20T00:55:18;96915.31;;;14.99;100.00
72677;BME280;60755;51.374;10.662;2023-07-20T00:57:46;96920.91;;;14.93;100.00
72677;BME280;60755;51.374;10.662;2023-07-20T01:00:13;96919.06;;;14.93;100.00
72677;BME280;60755;51.374;10.662;2023-07-20T01:02:41;96920.38;;;14.91;100.00
72677;BME280;60755;51.374;10.662;2023-07-20T01:05:08;96907.94;;;14.91;100.00
72677;BME280;60755;51.374;10.662;2023-07-20T01:07:42;96907.13;;;14.96;100.00
72677;BME280;60755;51.374;10.662;2023-07-20T01:10:17;96904.28;;;14.77;100.00
72677;BME280;60755;51.374;10.662;2023-07-20T01:12:47;96907.47;;;14.74;100.00
72677;BME280;60755;51.374;10.662;2023-07-20T01:15:16;96908.25;;;14.79;100.00
72677;BME280;60755;51.374;10.662;2023-07-20T01:17:43;96911.41;;;14.81;100.00
72677;BME280;60755;51.374;10.662;2023-07-20T01:20:13;96916.97;;;14.85;100.00
72677;BME280;60755;51.374;10.662;2023-07-20T01:22:55;96916.13;;;14.90;100.00
72677;BME280;60755;51.374;10.662;2023-07-20T01:25:38;96918.81;;;14.85;100.00
72677;BME280;60755;51.374;10.662;2023-07-20T01:28:28;96939.44;;;14.93;100.00
72677;BME280;60755;51.374;10.662;2023-07-20T01:31:16;96944.69;;;15.03;100.00
72677;BME280;60755;51.374;10.662;2023-07-20T01:33:44;96925.59;;;15.11;100.00
72677;BME280;60755;51.374;10.662;2023-07-20T01:36:13;96924.31;;;15.03;100.00
72677;BME280;60755;51.374;10.662;2023-07-20T01:38:42;96919.25;;;15.07;100.00
72677;BME280;60755;51.374;10.662;2023-07-20T01:41:10;96910.00;;;15.09;100.00
72677;BME280;60755;51.374;10.662;2023-07-20T01:43:37;96916.88;;;15.10;100.00
72677;BME280;60755;51.374;10.662;2023-07-20T01:46:04;96914.75;;;15.07;100.00
72677;BME280;60755;51.374;10.662;2023-07-20T01:48:33;96919.00;;;15.03;100.00
72677;BME280;60755;51.374;10.662;2023-07-20T01:51:01;96914.28;;;14.95;100.00
72677;BME280;60755;51.374;10.662;2023-07-20T01:53:28;96912.19;;;14.92;100.00
72677;BME280;60755;51.374;10.662;2023-07-20T01:55:56;96904.25;;;14.87;100.00
72677;BME280;60755;51.374;10.662;2023-07-20T01:58:23;96908.47;;;14.83;100.00
72677;BME280;60755;51.374;10.662;2023-07-20T02:00:50;96901.63;;;14.82;100.00
72677;BME280;60755;51.374;10.662;2023-07-20T02:03:18;96906.66;;;14.73;100.00
72677;BME280;60755;51.374;10.662;2023-07-20T02:05:48;96914.09;;;14.66;100.00
72677;BME280;60755;51.374;10.662;2023-07-20T02:08:16;96909.91;;;14.60;100.00
72677;BME280;60755;51.374;10.662;2023-07-20T02:10:45;96911.75;;;14.54;100.00
72677;BME280;60755;51.374;10.662;2023-07-20T02:13:13;96918.09;;;14.53;100.00
72677;BME280;60755;51.374;10.662;2023-07-20T02:15:40;96917.03;;;14.49;100.00
72677;BME280;60755;51.374;10.662;2023-07-20T02:18:08;96913.59;;;14.49;100.00
72677;BME280;60755;51.374;10.662;2023-07-20T02:20:35;96912.28;;;14.51;100.00
72677;BME280;60755;51.374;10.662;2023-07-20T02:23:03;96914.91;;;14.51;100.00
72677;BME280;60755;51.374;10.662;2023-07-20T02:25:30;96923.91;;;14.40;100.00
72677;BME280;60755;51.374;10.662;2023-07-20T02:27:57;96923.38;;;14.33;100.00
72677;BME280;60755;51.374;10.662;2023-07-20T02:30:25;96917.03;;;14.24;100.00
72677;BME280;60755;51.374;10.662;2023-07-20T02:32:53;96916.25;;;14.28;100.00
72677;BME280;60755;51.374;10.662;2023-07-20T02:35:21;96917.06;;;14.14;100.00
72677;BME280;60755;51.374;10.662;2023-07-20T02:37:48;96921.81;;;14.07;100.00
72677;BME280;60755;51.374;10.662;2023-07-20T02:40:16;96913.34;;;14.15;100.00
72677;BME280;60755;51.374;10.662;2023-07-20T02:42:43;96916.53;;;14.07;100.00
72677;BME280;60755;51.374;10.662;2023-07-20T02:45:10;96918.66;;;14.05;100.00
72677;BME280;60755;51.374;10.662;2023-07-20T02:47:38;96913.88;;;14.02;100.00
72677;BME280;60755;51.374;10.662;2023-07-20T02:50:07;96915.19;;;13.94;100.00
72677;BME280;60755;51.374;10.662;2023-07-20T02:52:34;96915.44;;;13.87;100.00
72677;BME280;60755;51.374;10.662;2023-07-20T02:55:01;96918.63;;;13.84;100.00
72677;BME280;60755;51.374;10.662;2023-07-20T02:57:30;96914.38;;;13.78;100.00
72677;BME280;60755;51.374;10.662;2023-07-20T02:59:57;96915.44;;;13.87;100.00
72677;BME280;60755;51.374;10.662;2023-07-20T03:02:24;96904.91;;;13.82;100.00
72677;BME280;60755;51.374;10.662;2023-07-20T03:04:51;96913.34;;;13.84;100.00
72677;BME280;60755;51.374;10.662;2023-07-20T03:07:18;96918.09;;;13.87;100.00
72677;BME280;60755;51.374;10.662;2023-07-20T03:09:45;96915.97;;;13.84;100.00
72677;BME280;60755;51.374;10.662;2023-07-20T03:12:12;96919.16;;;13.76;100.00
72677;BME280;60755;51.374;10.662;2023-07-20T03:14:40;96926.56;;;13.89;100.00
72677;BME280;60755;51.374;10.662;2023-07-20T03:17:07;96918.63;;;13.84;100.00
72677;BME280;60755;51.374;10.662;2023-07-20T03:19:34;96927.59;;;13.83;100.00
72677;BME280;60755;51.374;10.662;2023-07-20T03:22:01;96926.81;;;13.78;100.00
72677;BME280;60755;51.374;10.662;2023-07-20T03:24:30;96923.88;;;13.79;100.00
72677;BME280;60755;51.374;10.662;2023-07-20T03:26:57;96938.19;;;13.83;100.00
72677;BME280;60755;51.374;10.662;2023-07-20T03:29:24;96933.44;;;13.80;100.00
72677;BME280;60755;51.374;10.662;2023-07-20T03:31:53;96931.03;;;13.79;100.00
72677;BME280;60755;51.374;10.662;2023-07-20T03:34:20;96935.56;;;13.88;100.00
72677;BME280;60755;51.374;10.662;2023-07-20T03:36:46;96930.78;;;13.90;100.00
72677;BME280;60755;51.374;10.662;2023-07-20T03:39:13;96930.00;;;14.05;100.00
72677;BME280;60755;51.374;10.662;2023-07-20T03:41:40;96933.69;;;14.24;100.00
72677;BME280;60755;51.374;10.662;2023-07-20T03:44:08;96931.81;;;14.35;100.00
72677;BME280;60755;51.374;10.662;2023-07-20T03:46:35;96929.72;;;14.37;100.00
72677;BME280;60755;51.374;10.662;2023-07-20T03:49:04;96927.38;;;14.46;100.00
72677;BME280;60755;51.374;10.662;2023-07-20T03:51:31;96923.13;;;14.60;100.00
72677;BME280;60755;51.374;10.662;2023-07-20T03:53:58;96932.84;;;14.75;99.15
72677;BME280;60755;51.374;10.662;2023-07-20T03:56:25;96931.25;;;14.74;99.70
72677;BME280;60755;51.374;10.662;2023-07-20T03:58:53;96926.53;;;14.71;99.70
72677;BME280;60755;51.374;10.662;2023-07-20T04:01:29;96924.06;;;15.00;99.45
72677;BME280;60755;51.374;10.662;2023-07-20T04:04:07;96924.59;;;15.95;93.57
72677;BME280;60755;51.374;10.662;2023-07-20T04:06:34;96918.16;;;16.36;91.89
72677;BME280;60755;51.374;10.662;2023-07-20T04:09:01;96918.16;;;16.70;88.04
72677;BME280;60755;51.374;10.662;2023-07-20T04:11:28;96922.28;;;16.81;87.17
72677;BME280;60755;51.374;10.662;2023-07-20T04:13:55;96917.47;;;16.83;87.23
72677;BME280;60755;51.374;10.662;2023-07-20T04:16:22;96920.28;;;16.39;88.94
72677;BME280;60755;51.374;10.662;2023-07-20T04:18:49;96925.19;;;15.87;92.09
72677;BME280;60755;51.374;10.662;2023-07-20T04:21:17;96925.09;;;15.63;93.21
72677;BME280;60755;51.374;10.662;2023-07-20T04:23:44;96918.72;;;15.59;94.70
72677;BME280;60755;51.374;10.662;2023-07-20T04:26:11;96918.09;;;15.33;95.86
72677;BME280;60755;51.374;10.662;2023-07-20T04:28:40;96911.00;;;15.19;98.52
72677;BME280;60755;51.374;10.662;2023-07-20T04:31:12;96926.41;;;15.06;100.00
72677;BME280;60755;51.374;10.662;2023-07-20T04:33:39;96921.66;;;15.03;100.00
72677;BME280;60755;51.374;10.662;2023-07-20T04:36:07;96930.16;;;14.95;100.00
72677;BME280;60755;51.374;10.662;2023-07-20T04:38:36;96924.88;;;14.95;100.00
72677;BME280;60755;51.374;10.662;2023-07-20T04:41:22;96921.16;;;15.01;100.00
72677;BME280;60755;51.374;10.662;2023-07-20T04:43:53;96933.84;;;14.99;99.38
72677;BME280;60755;51.374;10.662;2023-07-20T04:46:28;96935.44;;;14.95;99.13
72677;BME280;60755;51.374;10.662;2023-07-20T04:48:57;96939.16;;;14.89;99.25
72677;BME280;60755;51.374;10.662;2023-07-20T04:51:25;96940.13;;;15.19;99.97
72677;BME280;60755;51.374;10.662;2023-07-20T04:53:56;96935.28;;;15.36;99.55
72677;BME280;60755;51.374;10.662;2023-07-20T04:56:24;96945.09;;;15.30;98.92
72677;BME280;60755;51.374;10.662;2023-07-20T04:58:52;96948.25;;;15.37;98.86
72677;BME280;60755;51.374;10.662;2023-07-20T05:01:19;96946.72;;;15.26;96.96
72677;BME280;60755;51.374;10.662;2023-07-20T05:03:46;96948.81;;;15.29;97.83
72677;BME280;60755;51.374;10.662;2023-07-20T05:06:14;96948.47;;;15.46;97.62
72677;BME280;60755;51.374;10.662;2023-07-20T05:08:41;96947.38;;;15.52;98.06
72677;BME280;60755;51.374;10.662;2023-07-20T05:11:09;96952.97;;;15.46;97.05
72677;BME280;60755;51.374;10.662;2023-07-20T05:13:36;96949.19;;;15.67;94.74
72677;BME280;60755;51.374;10.662;2023-07-20T05:16:04;96950.09;;;15.91;94.84
72677;BME280;60755;51.374;10.662;2023-07-20T05:18:32;96954.53;;;16.01;95.50
72677;BME280;60755;51.374;10.662;2023-07-20T05:20:59;96950.09;;;15.91;93.75
72677;BME280;60755;51.374;10.662;2023-07-20T05:23:26;96948.28;;;16.21;93.47
72677;BME280;60755;51.374;10.662;2023-07-20T05:25:54;96948.34;;;16.45;93.34
72677;BME280;60755;51.374;10.662;2023-07-20T05:28:23;96952.94;;;16.63;91.60
72677;BME280;60755;51.374;10.662;2023-07-20T05:30:50;96953.84;;;16.83;88.61
72677;BME280;60755;51.374;10.662;2023-07-20T05:33:18;96946.50;;;17.22;85.82
72677;BME280;60755;51.374;10.662;2023-07-20T05:35:45;96941.75;;;18.00;85.01
72677;BME280;60755;51.374;10.662;2023-07-20T05:38:12;96947.03;;;19.25;80.03
72677;BME280;60755;51.374;10.662;2023-07-20T05:40:40;96934.59;;;19.34;74.89
72677;BME280;60755;51.374;10.662;2023-07-20T05:43:08;96945.75;;;19.86;74.83
72677;BME280;60755;51.374;10.662;2023-07-20T05:45:36;96943.66;;;19.33;77.29
72677;BME280;60755;51.374;10.662;2023-07-20T05:48:04;96945.72;;;18.81;75.69
72677;BME280;60755;51.374;10.662;2023-07-20T05:50:31;96948.84;;;18.23;81.21
72677;BME280;60755;51.374;10.662;2023-07-20T05:52:58;96953.63;;;18.40;82.84
72677;BME280;60755;51.374;10.662;2023-07-20T05:55:25;96955.97;;;18.09;81.47
72677;BME280;60755;51.374;10.662;2023-07-20T05:57:52;96950.47;;;17.25;86.01
72677;BME280;60755;51.374;10.662;2023-07-20T06:00:21;96956.88;;;17.61;87.51
72677;BME280;60755;51.374;10.662;2023-07-20T06:02:53;96951.22;;;17.49;87.06
72677;BME280;60755;51.374;10.662;2023-07-20T06:05:21;96963.22;;;17.23;86.33
72677;BME280;60755;51.374;10.662;2023-07-20T06:07:49;96942.94;;;17.08;87.94
72677;BME280;60755;51.374;10.662;2023-07-20T06:10:16;96950.97;;;17.27;87.75
72677;BME280;60755;51.374;10.662;2023-07-20T06:12:43;96945.97;;;17.63;86.04
72677;BME280;60755;51.374;10.662;2023-07-20T06:15:24;96957.28;;;18.58;84.19
72677;BME280;60755;51.374;10.662;2023-07-20T06:17:54;96950.97;;;18.86;80.78
72677;BME280;60755;51.374;10.662;2023-07-20T06:20:22;96961.13;;;18.52;78.95
72677;BME280;60755;51.374;10.662;2023-07-20T06:22:49;96962.09;;;19.16;79.76
72677;BME280;60755;51.374;10.662;2023-07-20T06:25:16;96961.53;;;19.05;77.25
72677;BME280;60755;51.374;10.662;2023-07-20T06:27:43;96954.25;;;22.18;70.06
72677;BME280;60755;51.374;10.662;2023-07-20T06:30:10;96943.50;;;24.87;59.07
72677;BME280;60755;51.374;10.662;2023-07-20T06:32:38;96936.03;;;25.94;54.82
72677;BME280;60755;51.374;10.662;2023-07-20T06:35:07;96938.31;;;25.67;55.99
72677;BME280;60755;51.374;10.662;2023-07-20T06:37:34;96943.94;;;27.69;51.01
72677;BME280;60755;51.374;10.662;2023-07-20T06:40:02;96936.88;;;29.57;48.37
72677;BME280;60755;51.374;10.662;2023-07-20T06:42:29;96938.38;;;30.11;44.98
72677;BME280;60755;51.374;10.662;2023-07-20T06:44:56;96948.22;;;28.09;48.67
72677;BME280;60755;51.374;10.662;2023-07-20T06:47:23;96948.16;;;26.72;50.32
72677;BME280;60755;51.374;10.662;2023-07-20T06:49:50;96949.47;;;24.60;54.95
72677;BME280;60755;51.374;10.662;2023-07-20T06:52:19;96957.88;;;22.95;61.66
72677;BME280;60755;51.374;10.662;2023-07-20T06:54:46;96957.41;;;22.84;64.97
72677;BME280;60755;51.374;10.662;2023-07-20T06:57:13;96950.63;;;22.95;62.97
72677;BME280;60755;51.374;10.662;2023-07-20T06:59:40;96955.09;;;22.65;63.04
72677;BME280;60755;51.374;10.662;2023-07-20T07:02:07;96956.50;;;23.77;61.38
72677;BME280;60755;51.374;10.662;2023-07-20T07:04:34;96948.19;;;21.43;64.40
72677;BME280;60755;51.374;10.662;2023-07-20T07:07:01;96954.63;;;22.63;64.46
72677;BME280;60755;51.374;10.662;2023-07-20T07:09:30;96961.16;;;24.76;57.85
72677;BME280;60755;51.374;10.662;2023-07-20T07:11:57;96945.72;;;26.11;53.53
72677;BME280;60755;51.374;10.662;2023-07-20T07:14:25;96951.63;;;28.64;47.24
72677;BME280;60755;51.374;10.662;2023-07-20T07:16:51;96961.38;;;26.93;53.18
72677;BME280;60755;51.374;10.662;2023-07-20T07:19:18;96959.34;;;24.68;55.62
72677;BME280;60755;51.374;10.662;2023-07-20T07:21:46;96959.06;;;27.07;53.72
72677;BME280;60755;51.374;10.662;2023-07-20T07:24:13;96950.75;;;26.84;53.46
72677;BME280;60755;51.374;10.662;2023-07-20T07:26:41;96956.78;;;24.71;55.22
72677;BME280;60755;51.374;10.662;2023-07-20T07:29:08;96953.13;;;22.10;60.68
72677;BME280;60755;51.374;10.662;2023-07-20T07:31:35;96956.41;;;20.76;66.84
72677;BME280;60755;51.374;10.662;2023-07-20T07:34:04;96957.66;;;20.25;67.80
72677;BME280;60755;51.374;10.662;2023-07-20T07:36:31;96958.19;;;20.35;68.34
72677;BME280;60755;51.374;10.662;2023-07-20T07:38:58;96962.72;;;20.80;68.80
72677;BME280;60755;51.374;10.662;2023-07-20T07:41:25;96970.59;;;20.85;70.84
72677;BME280;60755;51.374;10.662;2023-07-20T07:43:54;96966.97;;;21.20;70.95
72677;BME280;60755;51.374;10.662;2023-07-20T07:46:21;96965.38;;;20.49;68.60
72677;BME280;60755;51.374;10.662;2023-07-20T07:48:48;96967.25;;;21.10;68.02
72677;BME280;60755;51.374;10.662;2023-07-20T07:51:15;96970.19;;;21.40;68.82
72677;BME280;60755;51.374;10.662;2023-07-20T07:53:41;96967.50;;;21.00;68.26
72677;BME280;60755;51.374;10.662;2023-07-20T07:56:09;96967.66;;;20.42;68.98
72677;BME280;60755;51.374;10.662;2023-07-20T07:58:36;96977.28;;;19.70;73.16
72677;BME280;60755;51.374;10.662;2023-07-20T08:01:05;96975.72;;;19.00;72.09
72677;BME280;60755;51.374;10.662;2023-07-20T08:03:32;96979.19;;;18.87;74.15
72677;BME280;60755;51.374;10.662;2023-07-20T08:05:59;96979.53;;;18.15;76.90
72677;BME280;60755;51.374;10.662;2023-07-20T08:08:31;96993.13;;;17.33;83.28
72677;BME280;60755;51.374;10.662;2023-07-20T08:11:15;96993.28;;;17.18;88.78
72677;BME280;60755;51.374;10.662;2023-07-20T08:14:00;96996.78;;;17.14;87.25
72677;BME280;60755;51.374;10.662;2023-07-20T08:16:34;96995.03;;;17.04;88.02
72677;BME280;60755;51.374;10.662;2023-07-20T08:19:01;96998.06;;;17.40;90.87
72677;BME280;60755;51.374;10.662;2023-07-20T08:21:28;96986.53;;;17.74;83.49
72677;BME280;60755;51.374;10.662;2023-07-20T08:23:55;96993.56;;;18.02;86.63
72677;BME280;60755;51.374;10.662;2023-07-20T08:26:23;96994.44;;;17.98;85.07
72677;BME280;60755;51.374;10.662;2023-07-20T08:28:50;97002.97;;;18.65;86.25
72677;BME280;60755;51.374;10.662;2023-07-20T08:31:17;96998.00;;;18.77;81.76
72677;BME280;60755;51.374;10.662;2023-07-20T08:33:45;97002.75;;;19.08;79.79
72677;BME280;60755;51.374;10.662;2023-07-20T08:36:12;97007.50;;;19.24;78.63
72677;BME280;60755;51.374;10.662;2023-07-20T08:38:39;97010.75;;;19.90;78.87
72677;BME280;60755;51.374;10.662;2023-07-20T08:41:06;97010.41;;;20.28;73.58
72677;BME280;60755;51.374;10.662;2023-07-20T08:43:33;97011.84;;;20.11;75.23
72677;BME280;60755;51.374;10.662;2023-07-20T08:46:00;97014.75;;;19.65;74.43
72677;BME280;60755;51.374;10.662;2023-07-20T08:48:30;97017.31;;;18.83;78.86
72677;BME280;60755;51.374;10.662;2023-07-20T08:50:59;97022.34;;;18.52;81.05
72677;BME280;60755;51.374;10.662;2023-07-20T08:53:29;97030.22;;;17.39;83.64
72677;BME280;60755;51.374;10.662;2023-07-20T08:56:02;97024.53;;;16.73;85.92
72677;BME280;60755;51.374;10.662;2023-07-20T08:58:30;97024.75;;;17.30;87.96
72677;BME280;60755;51.374;10.662;2023-07-20T09:01:01;97027.13;;;17.31;85.08
72677;BME280;60755;51.374;10.662;2023-07-20T09:03:29;97027.34;;;17.59;83.07
72677;BME280;60755;51.374;10.662;2023-07-20T09:05:56;97027.69;;;17.52;82.89
72677;BME280;60755;51.374;10.662;2023-07-20T09:08:24;97027.97;;;17.75;84.99
72677;BME280;60755;51.374;10.662;2023-07-20T09:10:52;97029.72;;;18.03;80.69
72677;BME280;60755;51.374;10.662;2023-07-20T09:13:20;97027.91;;;17.80;81.60
72677;BME280;60755;51.374;10.662;2023-07-20T09:15:48;97036.41;;;18.01;82.32
72677;BME280;60755;51.374;10.662;2023-07-20T09:18:28;97033.22;;;18.36;80.81
72677;BME280;60755;51.374;10.662;2023-07-20T09:20:58;97037.63;;;17.89;82.51
72677;BME280;60755;51.374;10.662;2023-07-20T09:23:32;97035.25;;;18.07;82.88
72677;BME280;60755;51.374;10.662;2023-07-20T09:26:00;97032.81;;;18.29;81.01
72677;BME280;60755;51.374;10.662;2023-07-20T09:28:27;97042.44;;;18.25;81.58
72677;BME280;60755;51.374;10.662;2023-07-20T09:30:56;97037.19;;;18.20;80.75
72677;BME280;60755;51.374;10.662;2023-07-20T09:33:24;97047.88;;;18.53;81.14
72677;BME280;60755;51.374;10.662;2023-07-20T09:35:51;97046.94;;;18.62;80.65
72677;BME280;60755;51.374;10.662;2023-07-20T09:38:18;97047.00;;;18.76;78.74
72677;BME280;60755;51.374;10.662;2023-07-20T09:40:47;97060.19;;;18.67;80.23
72677;BME280;60755;51.374;10.662;2023-07-20T09:43:16;97061.09;;;18.58;80.61
72677;BME280;60755;51.374;10.662;2023-07-20T09:45:43;97066.75;;;18.18;79.91
72677;BME280;60755;51.374;10.662;2023-07-20T09:48:11;97071.91;;;17.91;80.61
72677;BME280;60755;51.374;10.662;2023-07-20T09:50:39;97070.94;;;17.58;81.11
72677;BME280;60755;51.374;10.662;2023-07-20T09:53:11;97071.34;;;17.70;80.04
72677;BME280;60755;51.374;10.662;2023-07-20T09:55:40;97067.72;;;18.04;80.00
72677;BME280;60755;51.374;10.662;2023-07-20T09:58:09;97074.47;;;17.77;80.78
72677;BME280;60755;51.374;10.662;2023-07-20T10:00:38;97076.81;;;17.79;80.54
72677;BME280;60755;51.374;10.662;2023-07-20T10:03:06;97070.66;;;17.59;80.18
72677;BME280;60755;51.374;10.662;2023-07-20T10:05:35;97074.84;;;17.18;81.69
72677;BME280;60755;51.374;10.662;2023-07-20T10:08:03;97073.19;;;17.22;81.18
72677;BME280;60755;51.374;10.662;2023-07-20T10:10:33;97077.97;;;16.91;82.98
72677;BME280;60755;51.374;10.662;2023-07-20T10:13:01;97072.84;;;17.28;83.19
72677;BME280;60755;51.374;10.662;2023-07-20T10:15:34;97074.91;;;17.37;81.67
72677;BME280;60755;51.374;10.662;2023-07-20T10:18:07;97083.78;;;17.27;81.06
72677;BME280;60755;51.374;10.662;2023-07-20T10:20:36;97080.47;;;18.07;78.82
72677;BME280;60755;51.374;10.662;2023-07-20T10:23:07;97076.44;;;18.98;75.56
72677;BME280;60755;51.374;10.662;2023-07-20T10:25:35;97080.69;;;18.99;74.35
72677;BME280;60755;51.374;10.662;2023-07-20T10:28:06;97075.16;;;19.83;72.12
72677;BME280;60755;51.374;10.662;2023-07-20T10:30:35;97082.53;;;20.14;71.00
72677;BME280;60755;51.374;10.662;2023-07-20T10:33:03;97073.75;;;20.00;69.20
72677;BME280;60755;51.374;10.662;2023-07-20T10:35:50;97072.66;;;20.37;66.52
72677;BME280;60755;51.374;10.662;2023-07-20T10:38:17;97077.78;;;18.82;68.29
72677;BME280;60755;51.374;10.662;2023-07-20T10:40:53;97074.78;;;19.03;71.16
72677;BME280;60755;51.374;10.662;2023-07-20T10:43:21;97075.44;;;19.27;69.38
72677;BME280;60755;51.374;10.662;2023-07-20T10:45:50;97076.50;;;19.40;68.48
72677;BME280;60755;51.374;10.662;2023-07-20T10:48:19;97071.78;;;19.37;70.53
72677;BME280;60755;51.374;10.662;2023-07-20T10:51:10;97084.03;;;19.79;68.61
72677;BME280;60755;51.374;10.662;2023-07-20T10:53:37;97088.00;;;19.81;68.27
72677;BME280;60755;51.374;10.662;2023-07-20T10:56:09;97086.78;;;19.46;68.00
72677;BME280;60755;51.374;10.662;2023-07-20T10:58:39;97080.53;;;19.23;67.21
72677;BME280;60755;51.374;10.662;2023-07-20T11:01:08;97080.88;;;19.49;69.02
72677;BME280;60755;51.374;10.662;2023-07-20T11:03:37;97076.34;;;19.77;70.80
72677;BME280;60755;51.374;10.662;2023-07-20T11:06:31;97076.47;;;19.59;67.70
72677;BME280;60755;51.374;10.662;2023-07-20T11:09:06;97077.47;;;19.16;68.12
72677;BME280;60755;51.374;10.662;2023-07-20T11:11:37;97075.22;;;18.77;68.18
72677;BME280;60755;51.374;10.662;2023-07-20T11:14:05;97066.19;;;18.22;71.67
72677;BME280;60755;51.374;10.662;2023-07-20T11:16:44;97060.41;;;18.33;69.88
72677;BME280;60755;51.374;10.662;2023-07-20T11:19:16;97073.91;;;18.56;71.00
72677;BME280;60755;51.374;10.662;2023-07-20T11:21:45;97074.25;;;19.33;67.57
72677;BME280;60755;51.374;10.662;2023-07-20T11:24:12;97069.03;;;19.83;68.48
72677;BME280;60755;51.374;10.662;2023-07-20T11:26:41;97079.09;;;19.86;66.02
72677;BME280;60755;51.374;10.662;2023-07-20T11:29:08;97083.03;;;20.02;66.00
72677;BME280;60755;51.374;10.662;2023-07-20T11:31:36;97084.88;;;20.29;62.51
72677;BME280;60755;51.374;10.662;2023-07-20T11:34:05;97078.47;;;20.17;63.31
72677;BME280;60755;51.374;10.662;2023-07-20T11:36:33;97087.00;;;19.64;63.76
72677;BME280;60755;51.374;10.662;2023-07-20T11:39:01;97081.69;;;19.77;64.78
72677;BME280;60755;51.374;10.662;2023-07-20T11:41:31;97074.84;;;19.85;64.29
72677;BME280;60755;51.374;10.662;2023-07-20T11:43:58;97075.09;;;19.15;62.40
72677;BME280;60755;51.374;10.662;2023-07-20T11:46:25;97079.84;;;19.18;63.25
72677;BME280;60755;51.374;10.662;2023-07-20T11:48:57;97070.09;;;19.54;60.89
72677;BME280;60755;51.374;10.662;2023-07-20T11:51:29;97076.84;;;19.79;60.89
72677;BME280;60755;51.374;10.662;2023-07-20T11:53:57;97072.59;;;19.65;58.71
72677;BME280;60755;51.374;10.662;2023-07-20T11:56:25;97072.81;;;19.82;61.70
72677;BME280;60755;51.374;10.662;2023-07-20T11:58:54;97070.22;;;20.27;59.55
72677;BME280;60755;51.374;10.662;2023-07-20T12:01:23;97076.09;;;20.15;58.63
72677;BME280;60755;51.374;10.662;2023-07-20T12:03:50;97072.66;;;20.37;59.97
72677;BME280;60755;51.374;10.662;2023-07-20T12:06:17;97075.69;;;20.22;57.14
72677;BME280;60755;51.374;10.662;2023-07-20T12:08:45;97070.50;;;20.39;57.39
72677;BME280;60755;51.374;10.662;2023-07-20T12:11:13;97066.94;;;20.44;58.30
72677;BME280;60755;51.374;10.662;2023-07-20T12:13:42;97064.78;;;21.21;57.13
72677;BME280;60755;51.374;10.662;2023-07-20T12:16:10;97055.59;;;21.85;56.91
72677;BME280;60755;51.374;10.662;2023-07-20T12:18:38;97065.47;;;21.27;55.30
72677;BME280;60755;51.374;10.662;2023-07-20T12:21:06;97072.41;;;21.37;57.05
72677;BME280;60755;51.374;10.662;2023-07-20T12:23:38;97059.97;;;21.81;54.42
72677;BME280;60755;51.374;10.662;2023-07-20T12:26:10;97075.56;;;19.91;58.07
72677;BME280;60755;51.374;10.662;2023-07-20T12:28:41;97076.28;;;19.22;61.77
72677;BME280;60755;51.374;10.662;2023-07-20T12:31:08;97084.56;;;18.56;62.93
72677;BME280;60755;51.374;10.662;2023-07-20T12:33:36;97079.97;;;18.80;62.80
72677;BME280;60755;51.374;10.662;2023-07-20T12:36:04;97079.66;;;18.63;62.38
72677;BME280;60755;51.374;10.662;2023-07-20T12:38:31;97073.78;;;18.28;61.59
72677;BME280;60755;51.374;10.662;2023-07-20T12:41:00;97078.25;;;18.70;60.66
72677;BME280;60755;51.374;10.662;2023-07-20T12:43:29;97072.81;;;18.94;60.36
72677;BME280;60755;51.374;10.662;2023-07-20T12:45:57;97064.75;;;19.13;58.10
72677;BME280;60755;51.374;10.662;2023-07-20T12:48:25;97060.22;;;19.27;56.84
72677;BME280;60755;51.374;10.662;2023-07-20T12:50:52;97056.56;;;19.23;56.92
72677;BME280;60755;51.374;10.662;2023-07-20T12:53:19;97058.06;;;19.43;57.88
72677;BME280;60755;51.374;10.662;2023-07-20T12:55:46;97058.94;;;18.60;56.41